地図

経路データ

SID SEASON NUMBER BASIN SUBBASIN NAME ISO_TIME NATURE LAT LON WMO_WIND WMO_PRES WMO_AGENCY TRACK_TYPE DIST2LAND LANDFALL IFLAG USA_AGENCY USA_ATCF_ID USA_LAT USA_LON USA_RECORD USA_STATUS USA_WIND USA_PRES USA_SSHS USA_R34_NE USA_R34_SE USA_R34_SW USA_R34_NW USA_R50_NE USA_R50_SE USA_R50_SW USA_R50_NW USA_R64_NE USA_R64_SE USA_R64_SW USA_R64_NW USA_POCI USA_ROCI USA_RMW USA_EYE TOKYO_LAT TOKYO_LON TOKYO_GRADE TOKYO_WIND TOKYO_PRES TOKYO_R50_DIR TOKYO_R50_LONG TOKYO_R50_SHORT TOKYO_R30_DIR TOKYO_R30_LONG TOKYO_R30_SHORT TOKYO_LAND CMA_LAT CMA_LON CMA_CAT CMA_WIND CMA_PRES HKO_LAT HKO_LON HKO_CAT HKO_WIND HKO_PRES NEWDELHI_LAT NEWDELHI_LON NEWDELHI_GRADE NEWDELHI_WIND NEWDELHI_PRES NEWDELHI_CI NEWDELHI_DP NEWDELHI_POCI REUNION_LAT REUNION_LON REUNION_TYPE REUNION_WIND REUNION_PRES REUNION_TNUM REUNION_CI REUNION_RMW REUNION_R34_NE REUNION_R34_SE REUNION_R34_SW REUNION_R34_NW REUNION_R50_NE REUNION_R50_SE REUNION_R50_SW REUNION_R50_NW REUNION_R64_NE REUNION_R64_SE REUNION_R64_SW REUNION_R64_NW BOM_LAT BOM_LON BOM_TYPE BOM_WIND BOM_PRES BOM_TNUM BOM_CI BOM_RMW BOM_R34_NE BOM_R34_SE BOM_R34_SW BOM_R34_NW BOM_R50_NE BOM_R50_SE BOM_R50_SW BOM_R50_NW BOM_R64_NE BOM_R64_SE BOM_R64_SW BOM_R64_NW BOM_ROCI BOM_POCI BOM_EYE BOM_POS_METHOD BOM_PRES_METHOD NADI_LAT NADI_LON NADI_CAT NADI_WIND NADI_PRES WELLINGTON_LAT WELLINGTON_LON WELLINGTON_WIND WELLINGTON_PRES DS824_LAT DS824_LON DS824_STAGE DS824_WIND DS824_PRES TD9636_LAT TD9636_LON TD9636_STAGE TD9636_WIND TD9636_PRES TD9635_LAT TD9635_LON TD9635_WIND TD9635_PRES TD9635_ROCI NEUMANN_LAT NEUMANN_LON NEUMANN_CLASS NEUMANN_WIND NEUMANN_PRES MLC_LAT MLC_LON MLC_CLASS MLC_WIND MLC_PRES USA_GUST BOM_GUST BOM_GUST_PER REUNION_GUST REUNION_GUST_PER USA_SEAHGT USA_SEARAD_NE USA_SEARAD_SE USA_SEARAD_SW USA_SEARAD_NW STORM_SPEED STORM_DIR
1964249N15342 1964 77 NA NA FLORENCE 1964-09-05 06:00:00 TS 14.5000 -18.0000 30 1004 hurdat_atl main 58 58 O_____________ hurdat_atl AL081964 14.5000 -18.0000 TD 30 1004 -1 10 302
1964249N15342 1964 77 NA NA FLORENCE 1964-09-05 09:00:00 TS 14.7601 -18.4323 main 97 97 P_____________ AL081964 14.7601 -18.4323 TD 30 -1 10 300
1964249N15342 1964 77 NA NA FLORENCE 1964-09-05 12:00:00 TS 15.0000 -18.9000 30 hurdat_atl main 154 154 O_____________ hurdat_atl AL081964 15.0000 -18.9000 TD 30 -1 11 295
1964249N15342 1964 77 NA NA FLORENCE 1964-09-05 15:00:00 TS 15.2074 -19.4276 main 211 211 P_____________ AL081964 15.2074 -19.4276 TD 30 -1 11 291
1964249N15342 1964 77 NA NA FLORENCE 1964-09-05 18:00:00 TS 15.4000 -20.0000 30 hurdat_atl main 279 279 O_____________ hurdat_atl AL081964 15.4000 -20.0000 TD 30 -1 12 289
1964249N15342 1964 77 NA NA FLORENCE 1964-09-05 21:00:00 TS 15.5924 -20.5927 main 347 347 P_____________ AL081964 15.5924 -20.5927 TD 30 -1 12 289
1964249N15342 1964 77 NA NA FLORENCE 1964-09-06 00:00:00 TS 15.8000 -21.2000 30 hurdat_atl main 415 415 O_____________ hurdat_atl AL081964 15.8000 -21.2000 TD 30 -1 13 291
1964249N15342 1964 77 NA NA FLORENCE 1964-09-06 03:00:00 TS 16.0424 -21.8076 main 483 483 P_____________ AL081964 16.0424 -21.8076 TD 30 -1 13 293
1964249N15342 1964 77 NA NA FLORENCE 1964-09-06 06:00:00 TS 16.3000 -22.4000 30 hurdat_atl main 554 554 O_____________ hurdat_atl AL081964 16.3000 -22.4000 TD 30 -1 12 294
1964249N15342 1964 77 NA NA FLORENCE 1964-09-06 09:00:00 TS 16.5349 -22.9653 main 622 622 P_____________ AL081964 16.5349 -22.9653 TD 30 -1 12 295
1964249N15342 1964 77 NA NA FLORENCE 1964-09-06 12:00:00 TS 16.8000 -23.5000 30 1003 hurdat_atl main 683 683 O_____________ hurdat_atl AL081964 16.8000 -23.5000 TD 30 1003 -1 12 301
1964249N15342 1964 77 NA NA FLORENCE 1964-09-06 15:00:00 TS 17.1423 -24.0075 main 745 745 P_____________ AL081964 17.1423 -24.0075 TD 30 -1 12 306
1964249N15342 1964 77 NA NA FLORENCE 1964-09-06 18:00:00 TS 17.5000 -24.5000 30 hurdat_atl main 810 810 O_____________ hurdat_atl AL081964 17.5000 -24.5000 TD 30 -1 12 304
1964249N15342 1964 77 NA NA FLORENCE 1964-09-06 21:00:00 TS 17.7924 -25.0004 main 872 872 P_____________ AL081964 17.7924 -25.0004 TD 32 -1 11 302
1964249N15342 1964 77 NA NA FLORENCE 1964-09-07 00:00:00 TS 18.1000 -25.5000 35 hurdat_atl main 930 930 O_____________ hurdat_atl AL081964 18.1000 -25.5000 TS 35 0 12 306
1964249N15342 1964 77 NA NA FLORENCE 1964-09-07 03:00:00 TS 18.4774 -26.0002 main 966 966 P_____________ AL081964 18.4774 -26.0002 TS 35 0 12 310
1964249N15342 1964 77 NA NA FLORENCE 1964-09-07 06:00:00 TS 18.9000 -26.5000 35 hurdat_atl main 1005 1005 O_____________ hurdat_atl AL081964 18.9000 -26.5000 TS 35 0 13 313
1964249N15342 1964 77 NA NA FLORENCE 1964-09-07 09:00:00 TS 19.3499 -27.0001 main 1047 1045 P_____________ AL081964 19.3499 -27.0001 TS 35 0 13 314
1964249N15342 1964 77 NA NA FLORENCE 1964-09-07 12:00:00 TS 19.8000 -27.5000 35 hurdat_atl main 1090 1090 O_____________ hurdat_atl AL081964 19.8000 -27.5000 TS 35 0 13 312
1964249N15342 1964 77 NA NA FLORENCE 1964-09-07 15:00:00 TS 20.2074 -28.0078 main 1136 1136 P_____________ AL081964 20.2074 -28.0078 TS 35 0 12 310
1964249N15342 1964 77 NA NA FLORENCE 1964-09-07 18:00:00 TS 20.6000 -28.5000 35 hurdat_atl main 1185 1185 O_____________ hurdat_atl AL081964 20.6000 -28.5000 TS 35 0 12 310
1964249N15342 1964 77 NA NA FLORENCE 1964-09-07 21:00:00 TS 20.9700 -28.9877 main 1235 1235 P_____________ AL081964 20.9700 -28.9877 TS 37 0 12 314
1964249N15342 1964 77 NA NA FLORENCE 1964-09-08 00:00:00 TS 21.4000 -29.4000 40 hurdat_atl main 1277 1277 O_____________ hurdat_atl AL081964 21.4000 -29.4000 TS 40 0 12 324
1964249N15342 1964 77 NA NA FLORENCE 1964-09-08 03:00:00 TS 21.9399 -29.7395 main 1310 1310 P_____________ AL081964 21.9399 -29.7395 TS 40 0 13 339
1964249N15342 1964 77 NA NA FLORENCE 1964-09-08 06:00:00 TS 22.6000 -29.9000 40 hurdat_atl main 1330 1324 O_____________ hurdat_atl AL081964 22.6000 -29.9000 TS 40 0 14 356
1964249N15342 1964 77 NA NA FLORENCE 1964-09-08 09:00:00 TS 23.3549 -29.8327 main 1325 1314 P_____________ AL081964 23.3549 -29.8327 TS 40 0 16 10
1964249N15342 1964 77 NA NA FLORENCE 1964-09-08 12:00:00 TS 24.2000 -29.6000 40 hurdat_atl main 1316 1291 O_____________ hurdat_atl AL081964 24.2000 -29.6000 TS 40 0 18 15
1964249N15342 1964 77 NA NA FLORENCE 1964-09-08 15:00:00 TS 25.0700 -29.3298 main 1287 1233 P_____________ AL081964 25.0700 -29.3298 TS 40 0 19 17
1964249N15342 1964 77 NA NA FLORENCE 1964-09-08 18:00:00 TS 26.0000 -29.0000 40 hurdat_atl main 1230 1178 O_____________ hurdat_atl AL081964 26.0000 -29.0000 TS 40 0 21 17
1964249N15342 1964 77 NA NA FLORENCE 1964-09-08 21:00:00 TS 27.0225 -28.6502 main 1178 1127 P_____________ AL081964 27.0225 -28.6502 TS 40 0 21 17
1964249N15342 1964 77 NA NA FLORENCE 1964-09-09 00:00:00 TS 28.0000 -28.3000 40 hurdat_atl main 1126 1093 O_____________ hurdat_atl AL081964 28.0000 -28.3000 TS 40 0 19 19
1964249N15342 1964 77 NA NA FLORENCE 1964-09-09 03:00:00 TS 28.8250 -27.9624 main 1093 1066 P_____________ AL081964 28.8250 -27.9624 TS 40 0 16 19
1964249N15342 1964 77 NA NA FLORENCE 1964-09-09 06:00:00 TS 29.5000 -27.7000 40 hurdat_atl main 1067 1060 O_____________ hurdat_atl AL081964 29.5000 -27.7000 TS 40 0 13 16
1964249N15342 1964 77 NA NA FLORENCE 1964-09-09 09:00:00 TS 30.0599 -27.5544 main 1065 1056 P_____________ AL081964 30.0599 -27.5544 TS 37 0 10 10
1964249N15342 1964 77 NA NA FLORENCE 1964-09-09 12:00:00 TS 30.5000 -27.5000 35 hurdat_atl main 1063 1063 O_____________ hurdat_atl AL081964 30.5000 -27.5000 TS 35 0 8 4
1964249N15342 1964 77 NA NA FLORENCE 1964-09-09 15:00:00 TS 30.8800 -27.4848 main 1072 1072 P_____________ AL081964 30.8800 -27.4848 TS 35 0 7 0
1964249N15342 1964 77 NA NA FLORENCE 1964-09-09 18:00:00 TS 31.2000 -27.5000 35 hurdat_atl main 1080 1080 O_____________ hurdat_atl AL081964 31.2000 -27.5000 TS 35 0 7 0
1964249N15342 1964 77 NA NA FLORENCE 1964-09-09 21:00:00 TS 31.5375 -27.5000 main 1089 1089 P_____________ AL081964 31.5375 -27.5000 TS 32 -1 6 1
1964249N15342 1964 77 NA NA FLORENCE 1964-09-10 00:00:00 TS 31.8000 -27.5000 30 1007 hurdat_atl main 1099 1099 O_____________ hurdat_atl AL081964 31.8000 -27.5000 TD 30 1007 -1 4 0
1964249N15342 1964 77 NA NA FLORENCE 1964-09-10 03:00:00 TS 31.9375 -27.5000 main 1102 1102 P_____________ AL081964 31.9375 -27.5000 TD 30 -1 2 8
1964249N15342 1964 77 NA NA FLORENCE 1964-09-10 06:00:00 TS 32.0000 -27.5000 30 hurdat_atl main 1106 O_____________ hurdat_atl AL081964 32.0000 -27.5000 TD 30 -1 1 0

IBTrACS Databaseについて

本データベースは、米国NOAAが公開する1842年以降の世界の熱帯低気圧のベストトラックデータアーカイブInternational Best Track Archive for Climate Stewardship (IBTrACS)を、ウェブで閲覧しやすい形式に変換したものです。

最終更新日:2021-10-21